sensor_id;sensor_type;location;lat;lon;timestamp;pressure;altitude;pressure_sealevel;temperature;humidity
27210;BME280;14721;42.668;23.386;2023-05-20T00:00:46;95590.31;;;12.92;96.13
27210;BME280;14721;42.668;23.386;2023-05-20T00:03:18;95587.78;;;13.02;96.68
27210;BME280;14721;42.668;23.386;2023-05-20T00:05:44;95588.75;;;13.12;96.21
27210;BME280;14721;42.668;23.386;2023-05-20T00:08:10;95590.25;;;13.16;95.09
27210;BME280;14721;42.668;23.386;2023-05-20T00:10:36;95590.19;;;12.94;96.27
27210;BME280;14721;42.668;23.386;2023-05-20T00:13:02;95591.78;;;12.85;96.86
27210;BME280;14721;42.668;23.386;2023-05-20T00:15:27;95603.63;;;12.83;96.50
27210;BME280;14721;42.668;23.386;2023-05-20T00:17:54;95598.22;;;12.94;96.87
27210;BME280;14721;42.668;23.386;2023-05-20T00:20:20;95609.63;;;13.08;96.35
27210;BME280;14721;42.668;23.386;2023-05-20T00:22:45;95600.06;;;12.71;95.14
27210;BME280;14721;42.668;23.386;2023-05-20T00:25:11;95591.16;;;12.71;95.72
27210;BME280;14721;42.668;23.386;2023-05-20T00:27:39;95601.63;;;12.63;96.25
27210;BME280;14721;42.668;23.386;2023-05-20T00:30:05;95582.88;;;12.52;97.48
27210;BME280;14721;42.668;23.386;2023-05-20T00:32:31;95575.81;;;12.62;97.61
27210;BME280;14721;42.668;23.386;2023-05-20T00:34:57;95576.91;;;12.59;98.13
27210;BME280;14721;42.668;23.386;2023-05-20T00:37:23;95572.72;;;12.55;98.29
27210;BME280;14721;42.668;23.386;2023-05-20T00:39:49;95570.41;;;12.40;97.68
27210;BME280;14721;42.668;23.386;2023-05-20T00:42:21;95574.38;;;12.23;98.12
27210;BME280;14721;42.668;23.386;2023-05-20T00:44:47;95568.41;;;12.20;100.00
27210;BME280;14721;42.668;23.386;2023-05-20T00:47:17;95566.72;;;12.30;100.00
27210;BME280;14721;42.668;23.386;2023-05-20T00:49:48;95563.72;;;12.45;100.00
27210;BME280;14721;42.668;23.386;2023-05-20T00:52:14;95562.59;;;12.48;99.69
27210;BME280;14721;42.668;23.386;2023-05-20T00:54:40;95554.56;;;12.48;99.38
27210;BME280;14721;42.668;23.386;2023-05-20T00:57:06;95558.81;;;12.39;100.00
27210;BME280;14721;42.668;23.386;2023-05-20T00:59:35;95548.81;;;12.30;99.36
27210;BME280;14721;42.668;23.386;2023-05-20T01:02:02;95545.28;;;12.30;98.98
27210;BME280;14721;42.668;23.386;2023-05-20T01:04:27;95552.25;;;12.43;98.65
27210;BME280;14721;42.668;23.386;2023-05-20T01:06:53;95559.69;;;12.51;98.94
27210;BME280;14721;42.668;23.386;2023-05-20T01:09:20;95575.78;;;12.40;99.97
27210;BME280;14721;42.668;23.386;2023-05-20T01:12:47;95570.28;;;12.41;99.29
27210;BME280;14721;42.668;23.386;2023-05-20T01:14:58;95570.88;;;12.34;99.03
27210;BME280;14721;42.668;23.386;2023-05-20T01:17:30;95567.06;;;12.25;99.99
27210;BME280;14721;42.668;23.386;2023-05-20T01:19:58;95568.44;;;12.31;100.00
27210;BME280;14721;42.668;23.386;2023-05-20T01:22:25;95561.47;;;12.28;100.00
27210;BME280;14721;42.668;23.386;2023-05-20T01:24:51;95566.50;;;11.98;100.00
27210;BME280;14721;42.668;23.386;2023-05-20T01:27:20;95557.34;;;11.90;100.00
27210;BME280;14721;42.668;23.386;2023-05-20T01:29:48;95562.09;;;11.63;100.00
27210;BME280;14721;42.668;23.386;2023-05-20T01:32:27;95572.88;;;11.85;100.00
27210;BME280;14721;42.668;23.386;2023-05-20T01:34:56;95573.34;;;12.02;100.00
27210;BME280;14721;42.668;23.386;2023-05-20T01:37:23;95583.03;;;11.92;100.00
27210;BME280;14721;42.668;23.386;2023-05-20T01:39:51;95578.53;;;11.93;100.00
27210;BME280;14721;42.668;23.386;2023-05-20T01:42:18;95570.91;;;11.76;100.00
27210;BME280;14721;42.668;23.386;2023-05-20T01:44:44;95558.84;;;11.70;100.00
27210;BME280;14721;42.668;23.386;2023-05-20T01:47:10;95562.06;;;11.86;100.00
27210;BME280;14721;42.668;23.386;2023-05-20T01:49:35;95567.69;;;11.94;100.00
27210;BME280;14721;42.668;23.386;2023-05-20T01:52:01;95557.75;;;11.96;100.00
27210;BME280;14721;42.668;23.386;2023-05-20T01:54:26;95560.25;;;11.87;100.00
27210;BME280;14721;42.668;23.386;2023-05-20T01:56:52;95559.13;;;11.78;100.00
27210;BME280;14721;42.668;23.386;2023-05-20T01:59:17;95566.63;;;11.73;100.00
27210;BME280;14721;42.668;23.386;2023-05-20T02:01:43;95567.50;;;11.74;100.00
27210;BME280;14721;42.668;23.386;2023-05-20T02:04:08;95562.41;;;11.82;100.00
27210;BME280;14721;42.668;23.386;2023-05-20T02:06:34;95562.06;;;11.86;100.00
27210;BME280;14721;42.668;23.386;2023-05-20T02:08:59;95560.94;;;11.78;100.00
27210;BME280;14721;42.668;23.386;2023-05-20T02:11:25;95562.00;;;11.52;100.00
27210;BME280;14721;42.668;23.386;2023-05-20T02:13:50;95570.47;;;11.45;100.00
27210;BME280;14721;42.668;23.386;2023-05-20T02:16:16;95560.44;;;11.36;100.00
27210;BME280;14721;42.668;23.386;2023-05-20T02:18:42;95560.94;;;11.54;100.00
27210;BME280;14721;42.668;23.386;2023-05-20T02:21:08;95549.75;;;11.60;100.00
27210;BME280;14721;42.668;23.386;2023-05-20T02:23:34;95553.63;;;11.56;100.00
27210;BME280;14721;42.668;23.386;2023-05-20T02:25:59;95553.53;;;11.21;100.00
27210;BME280;14721;42.668;23.386;2023-05-20T02:28:25;95558.22;;;11.30;100.00
27210;BME280;14721;42.668;23.386;2023-05-20T02:30:50;95548.50;;;11.29;100.00
27210;BME280;14721;42.668;23.386;2023-05-20T02:33:16;95552.19;;;11.39;100.00
27210;BME280;14721;42.668;23.386;2023-05-20T02:35:42;95544.50;;;11.35;100.00
27210;BME280;14721;42.668;23.386;2023-05-20T02:38:07;95544.28;;;11.38;100.00
27210;BME280;14721;42.668;23.386;2023-05-20T02:40:33;95553.97;;;11.28;100.00
27210;BME280;14721;42.668;23.386;2023-05-20T02:42:59;95547.34;;;11.21;100.00
27210;BME280;14721;42.668;23.386;2023-05-20T02:45:25;95540.28;;;11.20;100.00
27210;BME280;14721;42.668;23.386;2023-05-20T02:47:51;95554.28;;;11.23;100.00
27210;BME280;14721;42.668;23.386;2023-05-20T02:50:16;95536.81;;;11.30;100.00
27210;BME280;14721;42.668;23.386;2023-05-20T02:52:41;95547.47;;;11.43;100.00
27210;BME280;14721;42.668;23.386;2023-05-20T02:55:08;95552.72;;;11.44;100.00
27210;BME280;14721;42.668;23.386;2023-05-20T02:57:33;95550.72;;;11.35;100.00
27210;BME280;14721;42.668;23.386;2023-05-20T03:00:03;95556.59;;;11.40;100.00
27210;BME280;14721;42.668;23.386;2023-05-20T03:02:30;95556.53;;;11.29;100.00
27210;BME280;14721;42.668;23.386;2023-05-20T03:04:55;95564.06;;;11.48;100.00
27210;BME280;14721;42.668;23.386;2023-05-20T03:07:20;95552.13;;;11.65;100.00
27210;BME280;14721;42.668;23.386;2023-05-20T03:09:46;95563.22;;;11.71;100.00
27210;BME280;14721;42.668;23.386;2023-05-20T03:12:12;95569.06;;;11.53;100.00
27210;BME280;14721;42.668;23.386;2023-05-20T03:14:37;95568.84;;;11.56;100.00
27210;BME280;14721;42.668;23.386;2023-05-20T03:17:03;95575.88;;;11.57;100.00
27210;BME280;14721;42.668;23.386;2023-05-20T03:19:28;95574.03;;;11.70;100.00
27210;BME280;14721;42.668;23.386;2023-05-20T03:21:53;95576.53;;;11.84;100.00
27210;BME280;14721;42.668;23.386;2023-05-20T03:24:19;95568.34;;;11.98;100.00
27210;BME280;14721;42.668;23.386;2023-05-20T03:26:44;95569.91;;;12.35;100.00
27210;BME280;14721;42.668;23.386;2023-05-20T03:29:11;95569.22;;;12.66;99.48
27210;BME280;14721;42.668;23.386;2023-05-20T03:31:36;95569.72;;;13.15;97.28
27210;BME280;14721;42.668;23.386;2023-05-20T03:34:02;95573.31;;;14.01;94.09
27210;BME280;14721;42.668;23.386;2023-05-20T03:36:27;95578.72;;;14.73;89.02
27210;BME280;14721;42.668;23.386;2023-05-20T03:38:53;95580.03;;;15.09;84.96
27210;BME280;14721;42.668;23.386;2023-05-20T03:41:18;95582.28;;;15.34;82.85
27210;BME280;14721;42.668;23.386;2023-05-20T03:43:44;95578.91;;;15.42;82.26
27210;BME280;14721;42.668;23.386;2023-05-20T03:46:09;95587.06;;;15.70;80.62
27210;BME280;14721;42.668;23.386;2023-05-20T03:48:35;95586.88;;;16.40;77.89
27210;BME280;14721;42.668;23.386;2023-05-20T03:51:00;95580.19;;;16.82;74.76
27210;BME280;14721;42.668;23.386;2023-05-20T03:53:26;95595.84;;;17.61;71.61
27210;BME280;14721;42.668;23.386;2023-05-20T03:55:52;95590.41;;;17.98;69.15
27210;BME280;14721;42.668;23.386;2023-05-20T03:58:17;95587.47;;;18.53;67.11
27210;BME280;14721;42.668;23.386;2023-05-20T04:00:45;95595.38;;;19.16;62.94
27210;BME280;14721;42.668;23.386;2023-05-20T04:03:11;95601.94;;;19.56;60.75
27210;BME280;14721;42.668;23.386;2023-05-20T04:05:37;95607.91;;;19.93;58.72
27210;BME280;14721;42.668;23.386;2023-05-20T04:08:03;95607.88;;;20.35;58.02
27210;BME280;14721;42.668;23.386;2023-05-20T04:10:30;95615.63;;;20.96;54.75
27210;BME280;14721;42.668;23.386;2023-05-20T04:12:57;95611.34;;;20.85;54.98
27210;BME280;14721;42.668;23.386;2023-05-20T04:15:22;95613.19;;;20.93;54.46
27210;BME280;14721;42.668;23.386;2023-05-20T04:17:49;95599.78;;;20.91;54.36
27210;BME280;14721;42.668;23.386;2023-05-20T04:20:17;95598.50;;;20.95;54.56
27210;BME280;14721;42.668;23.386;2023-05-20T04:22:43;95605.72;;;20.87;53.94
27210;BME280;14721;42.668;23.386;2023-05-20T04:25:09;95592.88;;;21.21;54.03
27210;BME280;14721;42.668;23.386;2023-05-20T04:27:35;95591.88;;;21.92;52.16
27210;BME280;14721;42.668;23.386;2023-05-20T04:30:02;95590.78;;;22.09;51.38
27210;BME280;14721;42.668;23.386;2023-05-20T04:32:28;95581.66;;;22.25;51.14
27210;BME280;14721;42.668;23.386;2023-05-20T04:34:54;95593.47;;;23.01;49.18
27210;BME280;14721;42.668;23.386;2023-05-20T04:37:20;95601.13;;;22.75;49.34
27210;BME280;14721;42.668;23.386;2023-05-20T04:39:47;95602.50;;;22.41;50.08
27210;BME280;14721;42.668;23.386;2023-05-20T04:42:14;95595.84;;;22.43;48.66
27210;BME280;14721;42.668;23.386;2023-05-20T04:44:42;95595.41;;;22.32;49.45
27210;BME280;14721;42.668;23.386;2023-05-20T04:47:10;95601.34;;;23.11;48.21
27210;BME280;14721;42.668;23.386;2023-05-20T04:49:36;95604.50;;;23.22;46.74
27210;BME280;14721;42.668;23.386;2023-05-20T04:52:02;95606.88;;;23.62;46.94
27210;BME280;14721;42.668;23.386;2023-05-20T04:54:29;95609.31;;;23.72;46.40
27210;BME280;14721;42.668;23.386;2023-05-20T04:56:55;95608.31;;;23.73;44.82
27210;BME280;14721;42.668;23.386;2023-05-20T04:59:21;95595.13;;;24.20;44.23
27210;BME280;14721;42.668;23.386;2023-05-20T05:01:46;95601.44;;;23.91;45.17
27210;BME280;14721;42.668;23.386;2023-05-20T05:04:12;95612.25;;;23.85;46.19
27210;BME280;14721;42.668;23.386;2023-05-20T05:06:37;95595.38;;;24.40;43.33
27210;BME280;14721;42.668;23.386;2023-05-20T05:09:03;95604.09;;;25.00;41.76
27210;BME280;14721;42.668;23.386;2023-05-20T05:11:29;95596.88;;;24.57;43.01
27210;BME280;14721;42.668;23.386;2023-05-20T05:13:55;95609.88;;;24.69;43.37
27210;BME280;14721;42.668;23.386;2023-05-20T05:16:20;95595.25;;;24.62;43.69
27210;BME280;14721;42.668;23.386;2023-05-20T05:18:46;95599.34;;;25.29;42.49
27210;BME280;14721;42.668;23.386;2023-05-20T05:21:11;95595.28;;;25.40;42.85
27210;BME280;14721;42.668;23.386;2023-05-20T05:23:37;95602.53;;;24.91;42.68
27210;BME280;14721;42.668;23.386;2023-05-20T05:26:03;95596.22;;;25.53;42.73
27210;BME280;14721;42.668;23.386;2023-05-20T05:28:28;95596.09;;;25.19;43.91
27210;BME280;14721;42.668;23.386;2023-05-20T05:30:54;95593.88;;;25.29;43.39
27210;BME280;14721;42.668;23.386;2023-05-20T05:33:23;95590.59;;;25.96;42.20
27210;BME280;14721;42.668;23.386;2023-05-20T05:35:49;95589.00;;;26.01;41.36
27210;BME280;14721;42.668;23.386;2023-05-20T05:38:15;95579.78;;;26.09;40.43
27210;BME280;14721;42.668;23.386;2023-05-20T05:40:40;95582.75;;;26.14;41.16
27210;BME280;14721;42.668;23.386;2023-05-20T05:43:06;95582.34;;;26.17;40.64
27210;BME280;14721;42.668;23.386;2023-05-20T05:45:31;95590.59;;;25.96;40.99
27210;BME280;14721;42.668;23.386;2023-05-20T05:47:57;95584.97;;;26.31;40.67
27210;BME280;14721;42.668;23.386;2023-05-20T05:50:22;95577.03;;;27.09;39.68
27210;BME280;14721;42.668;23.386;2023-05-20T05:52:48;95591.25;;;27.65;38.84
27210;BME280;14721;42.668;23.386;2023-05-20T05:55:13;95595.44;;;27.48;39.15
27210;BME280;14721;42.668;23.386;2023-05-20T05:57:39;95580.81;;;27.15;39.05
27210;BME280;14721;42.668;23.386;2023-05-20T06:00:05;95581.50;;;27.30;38.26
27210;BME280;14721;42.668;23.386;2023-05-20T06:02:30;95581.84;;;27.01;38.31
27210;BME280;14721;42.668;23.386;2023-05-20T06:05:01;95578.34;;;27.33;39.07
27210;BME280;14721;42.668;23.386;2023-05-20T06:07:27;95575.38;;;27.28;37.72
27210;BME280;14721;42.668;23.386;2023-05-20T06:09:52;95572.84;;;27.26;37.44
27210;BME280;14721;42.668;23.386;2023-05-20T06:12:17;95561.66;;;27.93;37.64
27210;BME280;14721;42.668;23.386;2023-05-20T06:14:43;95561.44;;;28.01;37.26
27210;BME280;14721;42.668;23.386;2023-05-20T06:17:08;95563.56;;;27.47;37.15
27210;BME280;14721;42.668;23.386;2023-05-20T06:19:34;95556.81;;;27.69;37.12
27210;BME280;14721;42.668;23.386;2023-05-20T06:21:59;95544.31;;;27.93;36.46
27210;BME280;14721;42.668;23.386;2023-05-20T06:24:25;95566.84;;;28.27;36.42
27210;BME280;14721;42.668;23.386;2023-05-20T06:26:50;95568.00;;;28.64;35.83
27210;BME280;14721;42.668;23.386;2023-05-20T06:29:16;95559.38;;;28.54;36.67
27210;BME280;14721;42.668;23.386;2023-05-20T06:31:42;95554.22;;;28.70;36.01
27210;BME280;14721;42.668;23.386;2023-05-20T06:34:07;95547.91;;;29.07;35.45
27210;BME280;14721;42.668;23.386;2023-05-20T06:36:32;95542.34;;;29.14;35.28
27210;BME280;14721;42.668;23.386;2023-05-20T06:38:58;95545.59;;;28.60;35.43
27210;BME280;14721;42.668;23.386;2023-05-20T06:41:23;95542.69;;;28.49;36.14
27210;BME280;14721;42.668;23.386;2023-05-20T06:43:50;95537.47;;;29.16;35.65
27210;BME280;14721;42.668;23.386;2023-05-20T06:46:16;95535.28;;;29.24;35.48
27210;BME280;14721;42.668;23.386;2023-05-20T06:48:41;95535.13;;;29.44;34.35
27210;BME280;14721;42.668;23.386;2023-05-20T06:51:07;95528.22;;;29.04;34.41
27210;BME280;14721;42.668;23.386;2023-05-20T06:53:35;95530.19;;;29.53;33.49
27210;BME280;14721;42.668;23.386;2023-05-20T06:56:01;95547.09;;;29.63;32.01
27210;BME280;14721;42.668;23.386;2023-05-20T06:58:27;95547.28;;;29.05;32.82
27210;BME280;14721;42.668;23.386;2023-05-20T07:00:53;95533.59;;;29.79;33.21
27210;BME280;14721;42.668;23.386;2023-05-20T07:03:18;95537.50;;;29.90;32.31
27210;BME280;14721;42.668;23.386;2023-05-20T07:05:44;95531.81;;;29.85;32.45
27210;BME280;14721;42.668;23.386;2023-05-20T07:08:09;95550.81;;;29.93;33.34
27210;BME280;14721;42.668;23.386;2023-05-20T07:10:35;95527.56;;;29.89;32.39
27210;BME280;14721;42.668;23.386;2023-05-20T07:13:01;95530.47;;;30.12;31.58
27210;BME280;14721;42.668;23.386;2023-05-20T07:15:26;95525.31;;;30.22;32.42
27210;BME280;14721;42.668;23.386;2023-05-20T07:17:52;95528.69;;;30.24;31.18
27210;BME280;14721;42.668;23.386;2023-05-20T07:20:17;95525.09;;;30.23;31.35
27210;BME280;14721;42.668;23.386;2023-05-20T07:22:43;95524.19;;;30.29;28.97
27210;BME280;14721;42.668;23.386;2023-05-20T07:25:09;95514.31;;;29.97;30.75
27210;BME280;14721;42.668;23.386;2023-05-20T07:27:34;95511.34;;;29.99;31.76
27210;BME280;14721;42.668;23.386;2023-05-20T07:30:00;95512.06;;;30.48;31.66
27210;BME280;14721;42.668;23.386;2023-05-20T07:32:26;95509.78;;;30.27;31.51
27210;BME280;14721;42.668;23.386;2023-05-20T07:34:51;95509.06;;;30.50;32.06
27210;BME280;14721;42.668;23.386;2023-05-20T07:37:16;95524.69;;;31.04;31.33
27210;BME280;14721;42.668;23.386;2023-05-20T07:39:42;95514.63;;;30.79;31.35
27210;BME280;14721;42.668;23.386;2023-05-20T07:42:07;95531.09;;;30.68;30.43
27210;BME280;14721;42.668;23.386;2023-05-20T07:44:33;95529.22;;;30.50;29.39
27210;BME280;14721;42.668;23.386;2023-05-20T07:46:58;95521.72;;;30.21;31.62
27210;BME280;14721;42.668;23.386;2023-05-20T07:49:24;95511.53;;;30.58;31.99
27210;BME280;14721;42.668;23.386;2023-05-20T07:51:49;95521.78;;;30.51;29.66
27210;BME280;14721;42.668;23.386;2023-05-20T07:54:15;95512.41;;;30.70;29.86
27210;BME280;14721;42.668;23.386;2023-05-20T07:56:40;95518.47;;;31.08;30.11
27210;BME280;14721;42.668;23.386;2023-05-20T07:59:06;95503.56;;;31.09;29.97
27210;BME280;14721;42.668;23.386;2023-05-20T08:01:31;95511.78;;;30.68;30.62
27210;BME280;14721;42.668;23.386;2023-05-20T08:03:57;95512.25;;;30.83;31.04
27210;BME280;14721;42.668;23.386;2023-05-20T08:06:22;95507.66;;;30.77;29.89
27210;BME280;14721;42.668;23.386;2023-05-20T08:08:51;95510.16;;;30.97;29.02
27210;BME280;14721;42.668;23.386;2023-05-20T08:11:19;95511.59;;;30.33;28.19
27210;BME280;14721;42.668;23.386;2023-05-20T08:13:46;95511.88;;;29.40;29.72
27210;BME280;14721;42.668;23.386;2023-05-20T08:16:11;95515.13;;;28.99;30.61
27210;BME280;14721;42.668;23.386;2023-05-20T08:18:37;95504.34;;;28.67;31.63
27210;BME280;14721;42.668;23.386;2023-05-20T08:21:04;95508.94;;;29.35;31.21
27210;BME280;14721;42.668;23.386;2023-05-20T08:23:32;95508.53;;;29.63;29.85
27210;BME280;14721;42.668;23.386;2023-05-20T08:25:58;95505.63;;;29.76;30.18
27210;BME280;14721;42.668;23.386;2023-05-20T08:28:29;95501.84;;;29.77;31.65
27210;BME280;14721;42.668;23.386;2023-05-20T08:30:55;95511.38;;;28.87;30.70
27210;BME280;14721;42.668;23.386;2023-05-20T08:33:24;95501.19;;;28.94;32.32
27210;BME280;14721;42.668;23.386;2023-05-20T08:35:50;95497.53;;;29.56;31.23
27210;BME280;14721;42.668;23.386;2023-05-20T08:38:16;95501.50;;;29.67;30.39
27210;BME280;14721;42.668;23.386;2023-05-20T08:40:41;95494.63;;;29.76;30.77
27210;BME280;14721;42.668;23.386;2023-05-20T08:43:07;95486.91;;;29.66;32.50
27210;BME280;14721;42.668;23.386;2023-05-20T08:45:36;95492.44;;;29.84;32.11
27210;BME280;14721;42.668;23.386;2023-05-20T08:48:02;95489.72;;;29.78;31.94
27210;BME280;14721;42.668;23.386;2023-05-20T08:50:29;95501.50;;;29.85;30.48
27210;BME280;14721;42.668;23.386;2023-05-20T08:52:55;95499.59;;;29.67;31.03
27210;BME280;14721;42.668;23.386;2023-05-20T08:55:29;95490.53;;;28.73;32.21
27210;BME280;14721;42.668;23.386;2023-05-20T08:57:57;95499.97;;;28.46;32.02
27210;BME280;14721;42.668;23.386;2023-05-20T09:00:23;95509.06;;;28.53;32.99
27210;BME280;14721;42.668;23.386;2023-05-20T09:02:53;95489.91;;;28.71;32.12
27210;BME280;14721;42.668;23.386;2023-05-20T09:05:21;95482.66;;;28.33;33.00
27210;BME280;14721;42.668;23.386;2023-05-20T09:07:47;95487.63;;;28.18;34.07
27210;BME280;14721;42.668;23.386;2023-05-20T09:10:13;95483.03;;;28.05;33.35
27210;BME280;14721;42.668;23.386;2023-05-20T09:12:39;95488.56;;;27.79;33.56
27210;BME280;14721;42.668;23.386;2023-05-20T09:15:05;95480.19;;;27.35;34.28
27210;BME280;14721;42.668;23.386;2023-05-20T09:17:35;95477.22;;;26.18;35.62
27210;BME280;14721;42.668;23.386;2023-05-20T09:20:05;95469.03;;;26.31;35.46
27210;BME280;14721;42.668;23.386;2023-05-20T09:22:32;95473.09;;;26.54;35.32
27210;BME280;14721;42.668;23.386;2023-05-20T09:24:58;95472.56;;;26.18;36.56
27210;BME280;14721;42.668;23.386;2023-05-20T09:27:26;95470.72;;;26.25;36.72
27210;BME280;14721;42.668;23.386;2023-05-20T09:29:51;95469.28;;;26.42;37.08
27210;BME280;14721;42.668;23.386;2023-05-20T09:32:19;95469.44;;;26.28;36.48
27210;BME280;14721;42.668;23.386;2023-05-20T09:34:46;95464.41;;;26.31;36.75
27210;BME280;14721;42.668;23.386;2023-05-20T09:37:13;95462.81;;;25.62;37.25
27210;BME280;14721;42.668;23.386;2023-05-20T09:39:48;95466.00;;;25.10;38.78
27210;BME280;14721;42.668;23.386;2023-05-20T09:42:24;95449.47;;;25.18;39.64
27210;BME280;14721;42.668;23.386;2023-05-20T09:44:52;95459.53;;;25.11;40.00
27210;BME280;14721;42.668;23.386;2023-05-20T09:47:38;95443.34;;;25.16;39.88
27210;BME280;14721;42.668;23.386;2023-05-20T09:50:08;95445.22;;;25.37;39.66
27210;BME280;14721;42.668;23.386;2023-05-20T09:52:37;95439.53;;;25.11;40.16
27210;BME280;14721;42.668;23.386;2023-05-20T09:55:07;95433.22;;;24.83;40.17
27210;BME280;14721;42.668;23.386;2023-05-20T09:57:35;95430.91;;;24.44;40.62
27210;BME280;14721;42.668;23.386;2023-05-20T10:00:02;95430.91;;;24.23;41.55
27210;BME280;14721;42.668;23.386;2023-05-20T10:02:29;95435.38;;;24.24;41.25
27210;BME280;14721;42.668;23.386;2023-05-20T10:04:56;95421.75;;;24.31;40.69
27210;BME280;14721;42.668;23.386;2023-05-20T10:13:16;95430.72;;;24.03;41.88
27210;BME280;14721;42.668;23.386;2023-05-20T10:21:14;95411.97;;;23.65;41.05
27210;BME280;14721;42.668;23.386;2023-05-20T10:23:40;95405.47;;;23.66;41.03
27210;BME280;14721;42.668;23.386;2023-05-20T10:26:06;95404.69;;;23.72;39.78
27210;BME280;14721;42.668;23.386;2023-05-20T10:28:34;95404.53;;;23.59;38.80
27210;BME280;14721;42.668;23.386;2023-05-20T10:31:14;95399.94;;;23.59;39.18
27210;BME280;14721;42.668;23.386;2023-05-20T10:33:45;95405.00;;;23.48;39.43
27210;BME280;14721;42.668;23.386;2023-05-20T10:36:21;95403.06;;;23.27;39.72
27210;BME280;14721;42.668;23.386;2023-05-20T10:38:56;95391.69;;;23.24;39.67
27210;BME280;14721;42.668;23.386;2023-05-20T10:41:31;95383.84;;;23.21;39.22
27210;BME280;14721;42.668;23.386;2023-05-20T10:44:02;95373.69;;;23.15;39.30
27210;BME280;14721;42.668;23.386;2023-05-20T10:46:29;95382.94;;;23.14;39.69
27210;BME280;14721;42.668;23.386;2023-05-20T10:48:55;95358.59;;;23.12;40.45
27210;BME280;14721;42.668;23.386;2023-05-20T10:51:20;95378.03;;;23.09;40.89
27210;BME280;14721;42.668;23.386;2023-05-20T10:53:46;95369.03;;;23.09;40.39
27210;BME280;14721;42.668;23.386;2023-05-20T10:56:16;95369.41;;;23.06;40.69
27210;BME280;14721;42.668;23.386;2023-05-20T10:58:43;95369.31;;;22.85;41.04
27210;BME280;14721;42.668;23.386;2023-05-20T11:01:09;95371.66;;;23.17;40.70
27210;BME280;14721;42.668;23.386;2023-05-20T11:03:35;95362.34;;;23.11;39.37
27210;BME280;14721;42.668;23.386;2023-05-20T11:06:05;95357.94;;;22.96;39.20
27210;BME280;14721;42.668;23.386;2023-05-20T11:08:34;95354.00;;;22.98;39.82
27210;BME280;14721;42.668;23.386;2023-05-20T11:11:00;95346.91;;;23.18;39.02
27210;BME280;14721;42.668;23.386;2023-05-20T11:13:26;95352.38;;;23.33;38.97
27210;BME280;14721;42.668;23.386;2023-05-20T11:15:51;95362.28;;;23.34;38.76
27210;BME280;14721;42.668;23.386;2023-05-20T11:18:17;95360.38;;;23.20;39.61
27210;BME280;14721;42.668;23.386;2023-05-20T11:20:45;95342.22;;;23.12;38.94
27210;BME280;14721;42.668;23.386;2023-05-20T11:23:12;95341.41;;;22.97;39.91
27210;BME280;14721;42.668;23.386;2023-05-20T11:25:38;95339.88;;;23.24;40.81
27210;BME280;14721;42.668;23.386;2023-05-20T11:28:03;95339.19;;;23.51;39.10
27210;BME280;14721;42.668;23.386;2023-05-20T11:30:32;95333.53;;;23.52;37.95
27210;BME280;14721;42.668;23.386;2023-05-20T11:35:27;95319.09;;;23.37;38.74
27210;BME280;14721;42.668;23.386;2023-05-20T11:38:01;95333.88;;;23.28;38.58
27210;BME280;14721;42.668;23.386;2023-05-20T11:40:27;95319.84;;;23.46;38.41
27210;BME280;14721;42.668;23.386;2023-05-20T11:42:59;95315.88;;;23.48;38.58
27210;BME280;14721;42.668;23.386;2023-05-20T11:45:25;95327.25;;;23.52;38.91
27210;BME280;14721;42.668;23.386;2023-05-20T11:48:03;95328.94;;;23.53;39.13
27210;BME280;14721;42.668;23.386;2023-05-20T11:50:40;95324.00;;;23.63;38.96
27210;BME280;14721;42.668;23.386;2023-05-20T11:53:07;95310.69;;;23.53;40.57
27210;BME280;14721;42.668;23.386;2023-05-20T11:55:33;95325.53;;;23.51;40.09
27210;BME280;14721;42.668;23.386;2023-05-20T11:58:00;95308.50;;;23.63;40.47
27210;BME280;14721;42.668;23.386;2023-05-20T12:00:26;95317.78;;;23.69;40.66
27210;BME280;14721;42.668;23.386;2023-05-20T12:02:51;95310.19;;;23.85;41.36
27210;BME280;14721;42.668;23.386;2023-05-20T12:05:19;95313.44;;;23.74;41.86
27210;BME280;14721;42.668;23.386;2023-05-20T12:07:45;95312.75;;;23.51;41.68
27210;BME280;14721;42.668;23.386;2023-05-20T12:10:11;95306.78;;;23.27;42.88
27210;BME280;14721;42.668;23.386;2023-05-20T12:12:38;95303.44;;;23.10;43.37
27210;BME280;14721;42.668;23.386;2023-05-20T12:15:04;95296.69;;;22.92;44.40
27210;BME280;14721;42.668;23.386;2023-05-20T12:17:42;95309.47;;;22.77;43.86
27210;BME280;14721;42.668;23.386;2023-05-20T12:20:08;95312.00;;;22.64;43.99
27210;BME280;14721;42.668;23.386;2023-05-20T12:22:34;95314.81;;;22.56;44.50
27210;BME280;14721;42.668;23.386;2023-05-20T12:25:03;95330.47;;;22.54;45.12
27210;BME280;14721;42.668;23.386;2023-05-20T12:27:32;95324.88;;;22.70;44.16
27210;BME280;14721;42.668;23.386;2023-05-20T12:29:58;95356.38;;;21.59;45.25
27210;BME280;14721;42.668;23.386;2023-05-20T12:32:24;95328.69;;;21.03;46.68
27210;BME280;14721;42.668;23.386;2023-05-20T12:34:52;95357.13;;;20.60;47.18
27210;BME280;14721;42.668;23.386;2023-05-20T12:37:17;95353.09;;;20.48;47.80
27210;BME280;14721;42.668;23.386;2023-05-20T12:39:42;95367.34;;;20.50;47.83
27210;BME280;14721;42.668;23.386;2023-05-20T12:42:08;95356.44;;;20.58;47.36
27210;BME280;14721;42.668;23.386;2023-05-20T12:44:33;95364.41;;;20.76;46.17
27210;BME280;14721;42.668;23.386;2023-05-20T12:46:59;95359.59;;;20.86;47.26
27210;BME280;14721;42.668;23.386;2023-05-20T12:49:24;95358.00;;;20.52;51.17
27210;BME280;14721;42.668;23.386;2023-05-20T12:51:50;95360.25;;;20.41;51.85
27210;BME280;14721;42.668;23.386;2023-05-20T12:54:16;95336.16;;;20.46;51.81
27210;BME280;14721;42.668;23.386;2023-05-20T12:56:41;95349.28;;;20.73;49.12
27210;BME280;14721;42.668;23.386;2023-05-20T12:59:11;95338.00;;;21.00;47.83